createdAt,value
2023-03-11T00:00:20.075Z,88.29
2023-03-11T00:00:51.927Z,88.34
2023-03-11T00:01:23.666Z,88.31
2023-03-11T00:01:55.786Z,88.34
2023-03-11T00:02:27.561Z,88.20
2023-03-11T00:03:01.681Z,88.45
2023-03-11T00:03:33.485Z,88.26
2023-03-11T00:04:05.322Z,88.21
2023-03-11T00:04:37.106Z,88.58
2023-03-11T00:05:09.991Z,88.39
2023-03-11T00:05:44.550Z,88.70
2023-03-11T00:06:16.736Z,88.58
2023-03-11T00:06:48.506Z,88.78
2023-03-11T00:07:20.363Z,89.24
2023-03-11T00:07:52.540Z,89.16
2023-03-11T00:08:25.661Z,88.92
2023-03-11T00:08:57.497Z,88.39
2023-03-11T00:09:29.384Z,88.78
2023-03-11T00:10:01.158Z,88.54
2023-03-11T00:10:38.946Z,88.44
2023-03-11T00:11:10.684Z,88.51
2023-03-11T00:11:42.383Z,88.58
2023-03-11T00:12:15.361Z,88.66
2023-03-11T00:12:47.120Z,89.33
2023-03-11T00:13:19.008Z,88.74
2023-03-11T00:13:50.765Z,89.41
2023-03-11T00:14:22.759Z,89.23
2023-03-11T00:14:54.545Z,88.96
2023-03-11T00:15:28.017Z,89.10
2023-03-11T00:16:01.100Z,89.52
2023-03-11T00:16:32.878Z,89.90
2023-03-11T00:17:04.743Z,90.54
2023-03-11T00:17:36.586Z,90.31
2023-03-11T00:18:08.591Z,89.93
2023-03-11T00:18:40.416Z,90.13
2023-03-11T00:19:12.195Z,90.00
2023-03-11T00:19:43.898Z,90.24
2023-03-11T00:20:20.417Z,90.25
2023-03-11T00:20:52.813Z,90.47
2023-03-11T00:21:24.550Z,90.20
2023-03-11T00:21:56.700Z,90.25
2023-03-11T00:22:28.459Z,90.55
2023-03-11T00:23:01.667Z,91.00
2023-03-11T00:23:35.644Z,90.84
2023-03-11T00:24:07.620Z,90.77
2023-03-11T00:24:39.335Z,90.90
2023-03-11T00:25:12.700Z,91.16
2023-03-11T00:25:46.186Z,90.77
2023-03-11T00:26:18.085Z,90.70
2023-03-11T00:26:49.853Z,90.54
2023-03-11T00:27:21.621Z,90.74
2023-03-11T00:27:54.083Z,90.83
2023-03-11T00:28:26.914Z,90.90
2023-03-11T00:28:58.641Z,90.23
2023-03-11T00:29:30.377Z,90.70
2023-03-11T00:30:02.120Z,90.54
2023-03-11T00:30:34.185Z,90.33
2023-03-11T00:31:06.170Z,90.00
2023-03-11T00:31:38.013Z,90.15
2023-03-11T00:32:09.764Z,90.31
2023-03-11T00:32:41.830Z,90.04
2023-03-11T00:33:16.414Z,90.94
2023-03-11T00:33:48.544Z,90.93
2023-03-11T00:34:20.234Z,90.88
2023-03-11T00:34:51.957Z,90.55
2023-03-11T00:35:27.213Z,90.61
2023-03-11T00:35:58.980Z,91.12
2023-03-11T00:36:33.936Z,90.88
2023-03-11T00:37:05.721Z,91.23
2023-03-11T00:37:37.414Z,90.94
2023-03-11T00:38:13.902Z,91.10
2023-03-11T00:38:45.708Z,91.52
2023-03-11T00:39:17.492Z,91.25
2023-03-11T00:39:49.223Z,91.76
2023-03-11T00:40:22.292Z,91.59
2023-03-11T00:40:54.165Z,91.63
2023-03-11T00:41:26.089Z,91.35
2023-03-11T00:41:57.830Z,91.91
2023-03-11T00:42:29.681Z,92.05
2023-03-11T00:43:01.650Z,92.07
2023-03-11T00:43:33.691Z,92.10
2023-03-11T00:44:05.422Z,92.01
2023-03-11T00:44:37.112Z,92.02
2023-03-11T00:45:09.221Z,91.95
2023-03-11T00:45:41.273Z,91.96
2023-03-11T00:46:13.229Z,92.61
2023-03-11T00:46:45.021Z,92.70
2023-03-11T00:47:17.432Z,92.27
2023-03-11T00:47:49.247Z,92.40
2023-03-11T00:48:20.965Z,92.41
2023-03-11T00:48:52.867Z,92.44
2023-03-11T00:49:24.694Z,92.42
2023-03-11T00:49:56.416Z,92.65
2023-03-11T00:50:33.919Z,92.29
2023-03-11T00:51:07.615Z,92.73
2023-03-11T00:51:39.426Z,92.63
2023-03-11T00:52:11.160Z,92.94
2023-03-11T00:52:42.857Z,92.61
2023-03-11T00:53:14.859Z,92.95
2023-03-11T00:53:46.557Z,93.09
2023-03-11T00:54:18.587Z,92.67
2023-03-11T00:54:50.360Z,92.20
2023-03-11T00:55:25.527Z,92.91
2023-03-11T00:55:57.360Z,92.22
2023-03-11T00:56:29.176Z,92.85
2023-03-11T00:57:01.045Z,92.61
2023-03-11T00:57:32.793Z,92.99
2023-03-11T00:58:06.404Z,93.48
2023-03-11T00:58:38.657Z,93.48
2023-03-11T00:59:10.411Z,93.85
2023-03-11T00:59:42.140Z,94.04
2023-03-11T01:00:16.121Z,93.66
2023-03-11T01:00:47.930Z,93.62
2023-03-11T01:01:21.328Z,93.73
2023-03-11T01:01:53.092Z,94.03
2023-03-11T01:02:24.914Z,93.65
2023-03-11T01:02:57.458Z,94.29
2023-03-11T01:03:29.365Z,94.20
2023-03-11T01:04:01.166Z,94.33
2023-03-11T01:04:32.939Z,94.36
2023-03-11T01:05:05.942Z,94.36
2023-03-11T01:05:37.759Z,94.27
2023-03-11T01:06:09.597Z,94.58
2023-03-11T01:06:45.715Z,93.79
2023-03-11T01:07:17.647Z,93.65
2023-03-11T01:07:49.928Z,93.10
2023-03-11T01:08:21.658Z,93.06
2023-03-11T01:08:53.453Z,93.67
2023-03-11T01:09:25.157Z,93.75
2023-03-11T01:09:56.916Z,94.05
2023-03-11T01:10:30.705Z,93.29
2023-03-11T01:11:04.093Z,93.08
2023-03-11T01:11:35.907Z,93.69
2023-03-11T01:12:07.649Z,93.21
2023-03-11T01:12:39.616Z,93.43
2023-03-11T01:13:11.712Z,93.70
2023-03-11T01:13:43.463Z,93.80
2023-03-11T01:14:15.234Z,93.32
2023-03-11T01:14:46.972Z,93.81
2023-03-11T01:15:31.751Z,93.87
2023-03-11T01:16:03.706Z,93.54
2023-03-11T01:16:35.596Z,93.23
2023-03-11T01:17:07.306Z,93.91
2023-03-11T01:17:39.044Z,93.27
2023-03-11T01:18:10.849Z,93.52
2023-03-11T01:18:42.675Z,93.90
2023-03-11T01:19:15.391Z,93.20
2023-03-11T01:19:47.087Z,93.18
2023-03-11T01:20:19.090Z,93.19
2023-03-11T01:20:50.965Z,93.12
2023-03-11T01:21:22.663Z,93.77
2023-03-11T01:21:54.341Z,92.94
2023-03-11T01:22:26.422Z,93.66
2023-03-11T01:22:58.155Z,93.62
2023-03-11T01:23:30.177Z,93.22
2023-03-11T01:24:01.940Z,93.81
2023-03-11T01:24:33.819Z,93.75
2023-03-11T01:25:05.927Z,93.65
2023-03-11T01:25:37.692Z,94.15
2023-03-11T01:26:09.394Z,93.53
2023-03-11T01:26:41.165Z,94.07
2023-03-11T01:27:12.949Z,94.15
2023-03-11T01:27:44.979Z,93.83
2023-03-11T01:28:17.025Z,94.06
2023-03-11T01:28:48.830Z,94.11
2023-03-11T01:29:20.573Z,94.32
2023-03-11T01:29:52.335Z,93.96
2023-03-11T01:30:25.555Z,93.90
2023-03-11T01:30:57.345Z,94.29
2023-03-11T01:31:29.169Z,94.23
2023-03-11T01:32:00.953Z,94.34
2023-03-11T01:32:32.720Z,94.36
2023-03-11T01:33:05.158Z,93.95
2023-03-11T01:33:36.988Z,94.62
2023-03-11T01:34:08.730Z,94.00
2023-03-11T01:34:40.485Z,94.60
2023-03-11T01:35:15.359Z,94.69
2023-03-11T01:35:47.290Z,94.58
2023-03-11T01:36:19.053Z,93.85
2023-03-11T01:36:50.753Z,93.56
2023-03-11T01:37:22.579Z,93.87
2023-03-11T01:37:55.229Z,93.13
2023-03-11T01:38:27.026Z,93.03
2023-03-11T01:38:58.942Z,92.86
2023-03-11T01:39:31.125Z,92.83
2023-03-11T01:40:03.242Z,92.92
2023-03-11T01:40:41.880Z,93.58
2023-03-11T01:41:13.583Z,93.18
2023-03-11T01:41:45.361Z,93.28
2023-03-11T01:42:17.070Z,94.36
2023-03-11T01:42:48.867Z,94.33
2023-03-11T01:43:41.436Z,94.30
2023-03-11T01:44:13.750Z,94.27
2023-03-11T01:44:45.518Z,94.11
2023-03-11T01:45:40.463Z,95.00
2023-03-11T01:46:53.385Z,94.96
2023-03-11T01:47:34.571Z,94.99
2023-03-11T01:48:09.211Z,94.50
2023-03-11T01:48:45.188Z,94.55
2023-03-11T01:49:16.916Z,95.38
2023-03-11T01:49:49.130Z,95.03
2023-03-11T01:50:21.374Z,95.39
2023-03-11T01:50:53.609Z,95.17
2023-03-11T01:51:33.417Z,94.71
2023-03-11T01:52:08.171Z,94.69
2023-03-11T01:52:42.555Z,94.70
2023-03-11T01:53:16.701Z,95.21
2023-03-11T01:53:48.813Z,94.92
2023-03-11T01:54:25.795Z,94.68
2023-03-11T01:54:57.572Z,95.39
2023-03-11T01:55:31.240Z,94.49
2023-03-11T01:56:05.171Z,94.53
2023-03-11T01:56:38.909Z,95.08
2023-03-11T01:57:13.732Z,94.57
2023-03-11T01:57:47.874Z,95.23
2023-03-11T01:58:25.669Z,95.45
2023-03-11T01:58:58.673Z,95.27
2023-03-11T01:59:36.552Z,95.78
2023-03-11T02:00:12.603Z,95.78
2023-03-11T02:00:44.730Z,95.49
2023-03-11T02:01:16.993Z,95.76
2023-03-11T02:01:58.858Z,95.98
2023-03-11T02:02:42.144Z,96.20
2023-03-11T02:03:43.341Z,96.78
2023-03-11T02:04:16.242Z,96.09
2023-03-11T02:04:49.860Z,96.30
2023-03-11T02:05:23.557Z,95.98
2023-03-11T02:05:57.682Z,95.64
2023-03-11T02:06:31.915Z,96.06
2023-03-11T02:07:05.102Z,95.43
2023-03-11T02:07:39.978Z,95.85
2023-03-11T02:08:11.733Z,95.67
2023-03-11T02:08:44.642Z,95.94
2023-03-11T02:09:16.356Z,95.95
2023-03-11T02:09:48.134Z,94.99
2023-03-11T02:10:20.639Z,95.31
2023-03-11T02:10:54.442Z,95.09
2023-03-11T02:11:30.709Z,95.17
2023-03-11T02:12:04.279Z,96.05
2023-03-11T02:12:38.022Z,95.26
2023-03-11T02:13:10.764Z,95.19
2023-03-11T02:13:45.333Z,95.77
2023-03-11T02:14:17.909Z,95.26
2023-03-11T02:14:54.684Z,95.37
2023-03-11T02:15:26.982Z,95.62
2023-03-11T02:16:00.756Z,95.32
2023-03-11T02:16:33.267Z,95.94
2023-03-11T02:17:05.503Z,95.23
2023-03-11T02:17:39.950Z,96.05
2023-03-11T02:18:18.680Z,95.74
2023-03-11T02:18:50.558Z,95.85
2023-03-11T02:19:46.419Z,95.36
2023-03-11T02:20:37.169Z,95.04
2023-03-11T02:21:29.974Z,95.24
2023-03-11T02:22:03.116Z,95.43
2023-03-11T02:22:35.221Z,95.49
2023-03-11T02:23:07.134Z,95.03
2023-03-11T02:24:16.398Z,95.24
2023-03-11T02:25:13.660Z,94.39
2023-03-11T02:26:01.577Z,94.54
2023-03-11T02:27:01.809Z,95.48
2023-03-11T02:27:38.755Z,95.44
2023-03-11T02:28:14.976Z,95.13
2023-03-11T02:28:49.300Z,95.34
2023-03-11T02:29:23.390Z,94.72
2023-03-11T02:29:56.919Z,95.04
2023-03-11T02:30:31.159Z,95.33
2023-03-11T02:31:03.005Z,94.95
2023-03-11T02:31:38.582Z,95.79
2023-03-11T02:32:11.547Z,95.29
2023-03-11T02:32:48.559Z,94.88
2023-03-11T02:33:20.483Z,95.75
2023-03-11T02:33:54.793Z,95.10
2023-03-11T02:34:29.468Z,95.44
2023-03-11T02:35:01.201Z,95.73
2023-03-11T02:35:33.012Z,95.44
2023-03-11T02:36:05.259Z,95.24
2023-03-11T02:36:42.007Z,95.46
2023-03-11T02:37:16.919Z,95.74
2023-03-11T02:37:51.750Z,94.96
2023-03-11T02:38:24.333Z,95.87
2023-03-11T02:38:56.091Z,95.34
2023-03-11T02:39:33.742Z,95.05
2023-03-11T02:40:23.244Z,95.23
2023-03-11T02:41:02.574Z,95.32
2023-03-11T02:41:40.251Z,96.19
2023-03-11T02:42:26.059Z,96.47
2023-03-11T02:43:01.749Z,95.32
2023-03-11T02:43:43.945Z,96.10
2023-03-11T02:44:16.635Z,96.41
2023-03-11T02:45:01.400Z,95.97
2023-03-11T02:45:34.477Z,95.69
2023-03-11T02:46:10.252Z,95.77
2023-03-11T02:46:43.153Z,95.64
2023-03-11T02:47:17.062Z,96.00
2023-03-11T02:47:49.907Z,96.20
2023-03-11T02:48:22.781Z,95.62
2023-03-11T02:48:56.265Z,95.86
2023-03-11T02:49:28.456Z,95.37
2023-03-11T02:50:00.234Z,96.06
2023-03-11T02:50:34.592Z,95.79
2023-03-11T02:51:06.509Z,95.70
2023-03-11T02:51:38.262Z,95.10
2023-03-11T02:52:10.020Z,95.84
2023-03-11T02:52:41.799Z,95.55
2023-03-11T02:53:14.361Z,95.85
2023-03-11T02:53:53.114Z,95.13
2023-03-11T02:54:24.805Z,95.58
2023-03-11T02:54:56.584Z,95.12
2023-03-11T02:55:28.278Z,94.77
2023-03-11T02:56:00.048Z,95.12
2023-03-11T02:56:32.368Z,95.13
2023-03-11T02:57:04.383Z,95.83
2023-03-11T02:57:36.128Z,95.12
2023-03-11T02:58:07.962Z,95.36
2023-03-11T02:58:39.684Z,95.63
2023-03-11T02:59:11.455Z,94.89
2023-03-11T02:59:43.230Z,94.94
2023-03-11T03:00:17.449Z,95.69
2023-03-11T03:00:49.326Z,95.56
2023-03-11T03:01:21.491Z,95.19
2023-03-11T03:01:53.190Z,95.56
2023-03-11T03:02:24.985Z,95.33
2023-03-11T03:02:56.898Z,95.45
2023-03-11T03:03:28.673Z,95.41
2023-03-11T03:04:00.560Z,94.98
2023-03-11T03:04:32.388Z,95.40
2023-03-11T03:05:04.261Z,95.30
2023-03-11T03:05:36.020Z,94.80
2023-03-11T03:06:07.854Z,94.98
2023-03-11T03:06:39.583Z,94.95
2023-03-11T03:07:11.666Z,95.72
2023-03-11T03:07:43.404Z,95.53
2023-03-11T03:08:15.421Z,95.77
2023-03-11T03:08:47.211Z,95.56
2023-03-11T03:09:18.909Z,94.97
2023-03-11T03:09:50.731Z,94.93
2023-03-11T03:10:23.232Z,95.33
2023-03-11T03:10:54.997Z,94.81
2023-03-11T03:11:26.787Z,94.77
2023-03-11T03:11:58.524Z,94.90
2023-03-11T03:12:30.465Z,94.70
2023-03-11T03:13:02.223Z,94.62
2023-03-11T03:13:34.171Z,95.54
2023-03-11T03:14:05.873Z,95.53
2023-03-11T03:14:37.554Z,95.59
2023-03-11T03:15:10.657Z,94.50
2023-03-11T03:15:42.368Z,94.27
2023-03-11T03:16:14.174Z,94.75
2023-03-11T03:16:46.046Z,94.38
2023-03-11T03:17:17.901Z,94.44
2023-03-11T03:17:51.647Z,94.33
2023-03-11T03:18:23.534Z,94.78
2023-03-11T03:18:55.256Z,94.73
2023-03-11T03:19:27.032Z,94.98
2023-03-11T03:19:58.792Z,95.04
2023-03-11T03:20:30.830Z,94.74
2023-03-11T03:21:02.603Z,95.09
2023-03-11T03:21:34.372Z,95.18
2023-03-11T03:22:06.532Z,94.30
2023-03-11T03:22:39.520Z,94.39
2023-03-11T03:23:11.237Z,94.78
2023-03-11T03:23:42.937Z,94.96
2023-03-11T03:24:14.747Z,94.73
2023-03-11T03:24:46.617Z,94.88
2023-03-11T03:25:18.845Z,93.81
2023-03-11T03:25:50.532Z,94.00
2023-03-11T03:26:22.252Z,94.23
2023-03-11T03:26:54.023Z,94.45
2023-03-11T03:27:25.711Z,93.84
2023-03-11T03:27:57.474Z,94.02
2023-03-11T03:28:29.188Z,93.77
2023-03-11T03:29:00.873Z,94.02
2023-03-11T03:29:32.664Z,93.45
2023-03-11T03:30:05.897Z,93.79
2023-03-11T03:30:38.481Z,93.70
2023-03-11T03:31:11.675Z,93.87
2023-03-11T03:31:43.569Z,93.85
2023-03-11T03:32:15.354Z,93.22
2023-03-11T03:32:47.137Z,93.28
2023-03-11T03:33:18.878Z,93.07
2023-03-11T03:33:50.566Z,93.16
2023-03-11T03:34:22.283Z,93.11
2023-03-11T03:34:59.015Z,93.80
2023-03-11T03:35:31.208Z,93.34
2023-03-11T03:36:07.836Z,93.62
2023-03-11T03:36:39.657Z,93.57
2023-03-11T03:37:11.356Z,93.62
2023-03-11T03:37:43.084Z,93.83
2023-03-11T03:38:15.088Z,93.42
2023-03-11T03:38:46.868Z,93.52
2023-03-11T03:39:19.989Z,93.09
2023-03-11T03:39:51.806Z,93.18
2023-03-11T03:40:23.647Z,92.94
2023-03-11T03:40:55.382Z,92.80
2023-03-11T03:41:27.851Z,93.26
2023-03-11T03:41:59.666Z,93.15
2023-03-11T03:42:31.879Z,92.55
2023-03-11T03:43:04.377Z,92.96
2023-03-11T03:43:36.168Z,92.76
2023-03-11T03:44:07.866Z,92.11
2023-03-11T03:44:39.572Z,90.63
2023-03-11T03:45:11.620Z,89.25
2023-03-11T03:45:43.374Z,90.81
2023-03-11T03:46:15.552Z,89.73
2023-03-11T03:46:47.413Z,88.90
2023-03-11T03:47:20.542Z,87.06
2023-03-11T03:47:52.349Z,86.76
2023-03-11T03:48:24.312Z,86.14
2023-03-11T03:48:56.225Z,85.51
2023-03-11T03:49:27.966Z,86.94
2023-03-11T03:49:59.670Z,87.27
2023-03-11T03:50:31.466Z,86.49
2023-03-11T03:51:05.659Z,86.73
2023-03-11T03:51:37.355Z,85.30
2023-03-11T03:52:10.493Z,85.50
2023-03-11T03:52:42.299Z,84.93
2023-03-11T03:53:14.198Z,85.30
2023-03-11T03:53:46.754Z,86.66
2023-03-11T03:54:18.507Z,83.25
2023-03-11T03:54:50.860Z,82.61
2023-03-11T03:55:22.611Z,81.12
2023-03-11T03:55:54.785Z,79.47
2023-03-11T03:56:26.661Z,78.58
2023-03-11T03:56:58.943Z,75.98
2023-03-11T03:57:30.691Z,75.48
2023-03-11T03:58:02.398Z,74.67
2023-03-11T03:58:34.275Z,74.71
2023-03-11T03:59:06.011Z,75.03
2023-03-11T03:59:37.822Z,74.12
2023-03-11T04:00:10.433Z,73.52
2023-03-11T04:00:42.304Z,73.45
2023-03-11T04:01:14.408Z,73.88
2023-03-11T04:01:46.149Z,74.29
2023-03-11T04:02:17.897Z,74.68
2023-03-11T04:02:49.586Z,74.00
2023-03-11T04:03:21.283Z,73.81
2023-03-11T04:03:53.142Z,73.60
2023-03-11T04:04:24.914Z,72.90
2023-03-11T04:04:56.858Z,73.18
2023-03-11T04:05:28.591Z,72.98
2023-03-11T04:06:23.415Z,72.41
2023-03-11T04:06:55.214Z,72.86
2023-03-11T04:07:26.906Z,73.27
2023-03-11T04:07:58.751Z,72.18
2023-03-11T04:08:30.537Z,72.62
2023-03-11T04:09:02.271Z,72.25
2023-03-11T04:09:34.105Z,72.22
2023-03-11T04:10:06.552Z,72.49
2023-03-11T04:10:38.261Z,72.89
2023-03-11T04:11:10.107Z,72.07
2023-03-11T04:11:41.801Z,72.52
2023-03-11T04:12:15.636Z,72.59
2023-03-11T04:12:47.373Z,72.66
2023-03-11T04:13:19.121Z,72.79
2023-03-11T04:13:50.906Z,72.26
2023-03-11T04:14:22.677Z,72.78
2023-03-11T04:14:54.459Z,73.26
2023-03-11T04:15:26.284Z,73.36
2023-03-11T04:15:58.091Z,72.96
2023-03-11T04:16:30.098Z,73.12
2023-03-11T04:17:01.945Z,73.18
2023-03-11T04:17:33.697Z,73.31
2023-03-11T04:18:05.727Z,73.00
2023-03-11T04:18:37.456Z,73.20
2023-03-11T04:19:09.879Z,72.76
2023-03-11T04:19:41.656Z,73.31
2023-03-11T04:20:13.593Z,73.55
2023-03-11T04:20:46.584Z,73.10
2023-03-11T04:21:18.465Z,74.10
2023-03-11T04:21:52.021Z,74.08
2023-03-11T04:22:23.793Z,73.77
2023-03-11T04:22:55.478Z,73.47
2023-03-11T04:23:27.166Z,74.11
2023-03-11T04:23:59.857Z,73.70
2023-03-11T04:24:31.903Z,73.56
2023-03-11T04:25:03.871Z,73.79
2023-03-11T04:25:35.694Z,73.57
2023-03-11T04:26:07.449Z,73.09
2023-03-11T04:26:39.532Z,73.44
2023-03-11T04:27:11.265Z,74.09
2023-03-11T04:27:46.093Z,73.64
2023-03-11T04:28:17.911Z,74.14
2023-03-11T04:28:49.929Z,73.70
2023-03-11T04:29:21.680Z,74.06
2023-03-11T04:29:53.477Z,74.44
2023-03-11T04:30:25.424Z,73.82
2023-03-11T04:30:57.368Z,74.12
2023-03-11T04:31:29.239Z,74.12
2023-03-11T04:32:00.979Z,73.93
2023-03-11T04:32:32.782Z,74.09
2023-03-11T04:33:04.511Z,74.68
2023-03-11T04:33:36.257Z,74.76
2023-03-11T04:34:08.102Z,74.71
2023-03-11T04:34:39.889Z,75.04
2023-03-11T04:35:11.678Z,75.15
2023-03-11T04:35:43.526Z,75.15
2023-03-11T04:36:15.336Z,75.00
2023-03-11T04:36:47.074Z,75.40
2023-03-11T04:37:18.880Z,75.11
2023-03-11T04:37:50.619Z,75.65
2023-03-11T04:38:22.583Z,75.73
2023-03-11T04:38:57.036Z,75.43
2023-03-11T04:39:28.860Z,75.71
2023-03-11T04:40:00.606Z,75.42
2023-03-11T04:40:32.645Z,75.83
2023-03-11T04:41:06.391Z,75.79
2023-03-11T04:41:38.182Z,75.72
2023-03-11T04:42:09.926Z,75.96
2023-03-11T04:42:41.888Z,76.38
2023-03-11T04:43:13.615Z,76.66
2023-03-11T04:43:45.438Z,76.41
2023-03-11T04:44:17.171Z,76.63
2023-03-11T04:44:49.035Z,77.30
2023-03-11T04:45:20.896Z,77.09
2023-03-11T04:45:52.792Z,77.66
2023-03-11T04:46:24.611Z,77.60
2023-03-11T04:46:57.280Z,77.44
2023-03-11T04:47:29.074Z,77.42
2023-03-11T04:48:00.805Z,77.92
2023-03-11T04:48:32.568Z,77.86
2023-03-11T04:49:04.289Z,77.92
2023-03-11T04:49:36.186Z,78.79
2023-03-11T04:50:08.082Z,78.34
2023-03-11T04:50:39.853Z,79.06
2023-03-11T04:51:11.613Z,78.79
2023-03-11T04:51:43.354Z,79.35
2023-03-11T04:52:15.256Z,78.95
2023-03-11T04:52:47.359Z,79.39
2023-03-11T04:53:19.347Z,79.73
2023-03-11T04:53:51.116Z,80.00
2023-03-11T04:54:22.805Z,80.20
2023-03-11T04:54:54.531Z,80.15
2023-03-11T04:55:26.342Z,80.77
2023-03-11T04:55:58.067Z,80.21
2023-03-11T04:56:29.969Z,80.16
2023-03-11T04:57:01.875Z,80.20
2023-03-11T04:57:33.669Z,81.02
2023-03-11T04:58:05.466Z,81.00
2023-03-11T04:58:37.442Z,81.55
2023-03-11T04:59:09.189Z,81.28
2023-03-11T04:59:40.955Z,81.37
2023-03-11T05:00:13.985Z,81.66
2023-03-11T05:00:45.987Z,81.31
2023-03-11T05:01:17.848Z,81.89
2023-03-11T05:01:49.729Z,81.67
2023-03-11T05:02:21.519Z,81.45
2023-03-11T05:02:53.691Z,81.54
2023-03-11T05:03:25.856Z,81.79
2023-03-11T05:03:57.688Z,82.00
2023-03-11T05:04:29.496Z,81.56
2023-03-11T05:05:01.734Z,81.75
2023-03-11T05:05:33.548Z,81.74
2023-03-11T05:06:05.733Z,82.33
2023-03-11T05:06:37.468Z,82.12
2023-03-11T05:07:09.225Z,82.22
2023-03-11T05:07:40.951Z,82.55
2023-03-11T05:08:12.665Z,82.41
2023-03-11T05:08:44.388Z,82.71
2023-03-11T05:09:16.098Z,82.87
2023-03-11T05:09:47.836Z,82.48
2023-03-11T05:10:22.524Z,82.89
2023-03-11T05:10:54.478Z,83.14
2023-03-11T05:11:26.276Z,82.68
2023-03-11T05:11:58.024Z,82.90
2023-03-11T05:12:29.741Z,83.01
2023-03-11T05:13:01.405Z,83.01
2023-03-11T05:13:33.235Z,82.91
2023-03-11T05:14:04.975Z,82.91
2023-03-11T05:14:36.822Z,83.25
2023-03-11T05:15:08.790Z,83.27
2023-03-11T05:15:40.642Z,82.93
2023-03-11T05:16:12.444Z,82.39
2023-03-11T05:16:44.237Z,82.23
2023-03-11T05:17:18.664Z,82.93
2023-03-11T05:17:50.452Z,82.40
2023-03-11T05:18:22.307Z,82.37
2023-03-11T05:18:54.042Z,81.68
2023-03-11T05:19:31.785Z,82.32
2023-03-11T05:20:06.697Z,81.82
2023-03-11T05:20:38.689Z,81.73
2023-03-11T05:21:10.399Z,82.19
2023-03-11T05:21:42.094Z,81.65
2023-03-11T05:22:13.828Z,81.99
2023-03-11T05:22:45.542Z,81.91
2023-03-11T05:23:17.300Z,82.50
2023-03-11T05:23:49.754Z,82.52
2023-03-11T05:24:21.752Z,83.08
2023-03-11T05:24:53.549Z,83.24
2023-03-11T05:25:25.705Z,83.15
2023-03-11T05:25:57.468Z,83.60
2023-03-11T05:26:29.187Z,83.37
2023-03-11T05:27:02.083Z,83.41
2023-03-11T05:27:33.799Z,83.60
2023-03-11T05:28:05.805Z,84.41
2023-03-11T05:28:37.523Z,84.82
2023-03-11T05:29:09.445Z,85.20
2023-03-11T05:29:41.470Z,84.97
2023-03-11T05:30:13.378Z,84.98
2023-03-11T05:30:45.180Z,82.02
2023-03-11T05:31:16.992Z,82.27
2023-03-11T05:31:48.723Z,81.82
2023-03-11T05:32:20.951Z,82.32
2023-03-11T05:32:52.790Z,81.54
2023-03-11T05:33:24.598Z,80.95
2023-03-11T05:33:56.307Z,81.27
2023-03-11T05:34:28.093Z,80.86
2023-03-11T05:34:59.972Z,81.94
2023-03-11T05:35:31.692Z,81.70
2023-03-11T05:36:05.850Z,81.93
2023-03-11T05:36:37.626Z,82.40
2023-03-11T05:37:09.402Z,82.34
2023-03-11T05:37:41.269Z,82.04
2023-03-11T05:38:13.499Z,82.82
2023-03-11T05:38:45.215Z,82.81
2023-03-11T05:39:17.027Z,82.64
2023-03-11T05:39:48.913Z,83.08
2023-03-11T05:40:21.514Z,83.07
2023-03-11T05:40:53.802Z,83.79
2023-03-11T05:41:25.546Z,84.00
2023-03-11T05:41:57.281Z,84.39
2023-03-11T05:42:29.063Z,84.28
2023-03-11T05:43:00.807Z,83.92
2023-03-11T05:43:32.559Z,84.19
2023-03-11T05:44:04.724Z,84.13
2023-03-11T05:44:36.652Z,83.71
2023-03-11T05:45:09.635Z,85.19
2023-03-11T05:45:41.413Z,84.08
2023-03-11T05:46:13.249Z,84.32
2023-03-11T05:46:45.085Z,84.51
2023-03-11T05:47:18.227Z,84.10
2023-03-11T05:47:51.888Z,84.57
2023-03-11T05:48:23.709Z,84.56
2023-03-11T05:48:55.494Z,84.90
2023-03-11T05:49:28.083Z,85.07
2023-03-11T05:49:59.816Z,84.87
2023-03-11T05:50:31.894Z,85.62
2023-03-11T05:51:11.901Z,85.73
2023-03-11T05:51:43.747Z,85.26
2023-03-11T05:52:15.963Z,85.43
2023-03-11T05:52:47.829Z,85.18
2023-03-11T05:53:19.654Z,85.29
2023-03-11T05:53:51.475Z,84.69
2023-03-11T05:54:23.220Z,84.74
2023-03-11T05:54:54.916Z,85.02
2023-03-11T05:55:26.637Z,85.03
2023-03-11T05:55:59.833Z,84.65
2023-03-11T05:56:31.723Z,85.10
2023-03-11T05:57:03.743Z,84.72
2023-03-11T05:57:35.801Z,84.37
2023-03-11T05:58:07.535Z,84.41
2023-03-11T05:58:39.298Z,84.85
2023-03-11T05:59:15.801Z,84.77
2023-03-11T05:59:48.118Z,85.23
2023-03-11T06:00:20.629Z,85.73
2023-03-11T06:00:52.396Z,85.59
2023-03-11T06:01:24.114Z,85.60
2023-03-11T06:01:55.922Z,84.63
2023-03-11T06:02:27.699Z,84.70
2023-03-11T06:02:59.480Z,84.45
2023-03-11T06:03:31.268Z,84.99
2023-03-11T06:04:03.395Z,84.80
2023-03-11T06:04:37.062Z,85.34
2023-03-11T06:05:11.642Z,85.73
2023-03-11T06:05:49.635Z,85.51
2023-03-11T06:06:21.379Z,85.09
2023-03-11T06:06:53.789Z,84.64
2023-03-11T06:07:25.549Z,84.79
2023-03-11T06:07:57.440Z,85.16
2023-03-11T06:08:30.856Z,84.84
2023-03-11T06:09:04.240Z,84.61
2023-03-11T06:09:37.117Z,85.07
2023-03-11T06:10:09.735Z,85.16
2023-03-11T06:10:42.183Z,85.13
2023-03-11T06:11:14.425Z,85.03
2023-03-11T06:11:46.410Z,85.22
2023-03-11T06:12:18.854Z,85.71
2023-03-11T06:12:50.572Z,85.13
2023-03-11T06:13:22.448Z,84.97
2023-03-11T06:13:55.983Z,84.30
2023-03-11T06:14:31.688Z,84.73
2023-03-11T06:15:03.586Z,84.35
2023-03-11T06:15:37.037Z,85.02
2023-03-11T06:16:09.561Z,84.92
2023-03-11T06:16:42.089Z,85.27
2023-03-11T06:17:14.144Z,85.24
2023-03-11T06:17:45.987Z,85.61
2023-03-11T06:18:17.812Z,85.58
2023-03-11T06:18:49.592Z,85.50
2023-03-11T06:19:21.698Z,85.46
2023-03-11T06:19:53.406Z,86.18
2023-03-11T06:20:25.619Z,86.53
2023-03-11T06:21:02.340Z,86.72
2023-03-11T06:21:34.074Z,86.90
2023-03-11T06:22:05.811Z,86.55
2023-03-11T06:22:40.105Z,87.05
2023-03-11T06:23:12.122Z,87.59
2023-03-11T06:23:44.179Z,87.35
2023-03-11T06:24:15.914Z,86.80
2023-03-11T06:24:47.791Z,87.39
2023-03-11T06:25:20.161Z,87.59
2023-03-11T06:25:59.657Z,87.67
2023-03-11T06:26:31.470Z,87.61
2023-03-11T06:27:03.364Z,87.86
2023-03-11T06:27:35.296Z,87.54
2023-03-11T06:28:07.467Z,87.85
2023-03-11T06:28:39.243Z,88.01
2023-03-11T06:29:15.498Z,87.51
2023-03-11T06:29:48.681Z,87.43
2023-03-11T06:30:20.796Z,88.12
2023-03-11T06:30:52.874Z,87.71
2023-03-11T06:31:27.843Z,87.24
2023-03-11T06:32:00.305Z,87.31
2023-03-11T06:32:32.250Z,87.33
2023-03-11T06:33:04.114Z,87.96
2023-03-11T06:33:35.986Z,87.03
2023-03-11T06:34:09.080Z,87.52
2023-03-11T06:34:40.866Z,87.59
2023-03-11T06:35:13.002Z,87.17
2023-03-11T06:35:45.273Z,87.27
2023-03-11T06:36:18.724Z,86.93
2023-03-11T06:36:50.562Z,87.07
2023-03-11T06:37:23.693Z,87.36
2023-03-11T06:37:55.452Z,87.07
2023-03-11T06:38:27.849Z,86.99
2023-03-11T06:38:59.820Z,87.36
2023-03-11T06:39:31.656Z,87.36
2023-03-11T06:40:08.607Z,87.53
2023-03-11T06:40:40.572Z,87.39
2023-03-11T06:41:13.322Z,87.75
2023-03-11T06:41:45.255Z,87.60
2023-03-11T06:42:17.008Z,87.66
2023-03-11T06:42:48.853Z,87.93
2023-03-11T06:43:22.338Z,87.88
2023-03-11T06:43:54.180Z,88.28
2023-03-11T06:44:25.975Z,87.55
2023-03-11T06:44:57.728Z,87.24
2023-03-11T06:45:29.485Z,87.01
2023-03-11T06:46:02.229Z,86.82
2023-03-11T06:46:34.064Z,87.18
2023-03-11T06:47:05.978Z,86.95
2023-03-11T06:47:37.838Z,86.72
2023-03-11T06:48:10.304Z,86.78
2023-03-11T06:48:42.403Z,86.42
2023-03-11T06:49:14.545Z,86.58
2023-03-11T06:49:46.824Z,86.62
2023-03-11T06:50:18.985Z,86.77
2023-03-11T06:50:58.417Z,87.14
2023-03-11T06:51:30.377Z,87.12
2023-03-11T06:52:03.586Z,87.15
2023-03-11T06:52:35.896Z,86.95
2023-03-11T06:53:07.826Z,86.80
2023-03-11T06:53:40.943Z,87.21
2023-03-11T06:54:13.257Z,87.68
2023-03-11T06:54:45.117Z,87.47
2023-03-11T06:55:17.003Z,87.53
2023-03-11T06:56:09.416Z,87.53
2023-03-11T06:56:41.192Z,86.95
2023-03-11T06:57:13.240Z,87.31
2023-03-11T06:57:45.806Z,87.15
2023-03-11T06:58:17.579Z,87.17
2023-03-11T06:58:50.062Z,87.19
2023-03-11T06:59:22.971Z,86.95
2023-03-11T06:59:54.783Z,87.05
2023-03-11T07:00:26.600Z,87.18
2023-03-11T07:01:16.218Z,86.77
2023-03-11T07:01:47.999Z,86.38
2023-03-11T07:02:19.754Z,86.42
2023-03-11T07:02:51.561Z,86.93
2023-03-11T07:03:23.355Z,86.83
2023-03-11T07:03:55.318Z,87.09
2023-03-11T07:04:27.239Z,87.12
2023-03-11T07:04:58.982Z,87.13